Terminal Aerodrome Forecast
Issued by NWS

Home | Current Version | Previous Version | Text Only | Print | Product List | Glossary On
Versions: 1 2 3 4 5 6 7 8 9 10 11 12 13 14 15 16 17 18
000
FTAK31 PAFA 231739
TAFAUN
TAF
PAUN 231739Z 2318/2418 08022KT 5SM -SHSN SCT025 OVC040
      TEMPO 2318/2320 2SM -SN BKN025 OVC040
     FM232000 10025G35KT 1SM -SN BLSN BKN015 OVC025
     FM232300 15028G40KT 1/4SM SN BLSN FZFG OVC005
     FM240600 18030G40KT 1SM -SN BLSN OVC010
     FM241000 21022G32KT 2SM -SN BLSN OVC015
     FM241500 20020G28KT 5SM -SN BR OVC030=

USA.gov is the U.S. government's official web portal to all federal, state and local government web resources and services.